Time;durP1;ratioP1;P1;durP2;ratioP2;P2;SDS_P1;SDS_P2;PMS_P1;PMS_P2;Temp;Humidity;BMP_temperature;BMP_pressure;BME280_temperature;BME280_humidity;BME280_pressure;Samples;Min_cycle;Max_cycle;Signal;HPM_P1;HPM_P2
2020/12/31 00:00:55;;;;;;;11.05;4.47;;;;;;;6.81;80.55;96865.11;1696377;84;21171;-68
2020/12/31 00:03:23;;;;;;;8.73;5.03;;;;;;;6.74;80.96;96886.48;1696538;84;21239;-67
2020/12/31 00:05:51;;;;;;;8.05;5.12;;;;;;;6.70;80.97;96898.86;1696643;84;21167;-67
2020/12/31 00:08:19;;;;;;;4.95;3.47;;;;;;;6.60;81.37;96895.53;1696337;84;21208;-70
2020/12/31 00:10:47;;;;;;;10.18;4.87;;;;;;;6.59;80.94;96897.30;1696532;84;21185;-70
2020/12/31 00:13:16;;;;;;;9.68;4.42;;;;;;;6.61;80.80;96900.53;1696481;84;21159;-70
2020/12/31 00:15:44;;;;;;;8.20;4.37;;;;;;;6.65;80.56;96902.38;1696443;84;21212;-69
2020/12/31 00:18:12;;;;;;;8.33;3.80;;;;;;;6.70;80.42;96894.99;1696700;84;21216;-68
2020/12/31 00:20:40;;;;;;;8.35;4.87;;;;;;;6.75;80.34;96890.70;1696387;84;21167;-68
2020/12/31 00:23:08;;;;;;;8.08;4.10;;;;;;;6.77;80.76;96893.45;1696339;84;21167;-68
2020/12/31 00:25:41;;;;;;;7.60;3.85;;;;;;;6.77;80.46;96887.51;1696402;84;21238;-69
2020/12/31 00:28:09;;;;;;;9.88;5.40;;;;;;;6.79;80.29;96886.39;1695942;84;21147;-69
2020/12/31 00:30:38;;;;;;;9.38;6.08;;;;;;;6.70;80.61;96878.22;1696974;84;21215;-69
2020/12/31 00:33:06;;;;;;;11.08;5.97;;;;;;;6.69;80.60;96872.75;1696493;84;21169;-66
2020/12/31 00:35:35;;;;;;;11.68;5.33;;;;;;;6.66;81.06;96885.92;1696348;84;21589;-68
2020/12/31 00:38:03;;;;;;;13.68;6.33;;;;;;;6.61;80.92;96881.69;1696690;84;21156;-68
2020/12/31 00:40:31;;;;;;;10.60;6.70;;;;;;;6.57;80.65;96877.30;1696490;84;21207;-70
2020/12/31 00:42:58;;;;;;;10.20;6.00;;;;;;;6.51;81.05;96873.99;1696493;84;21595;-69
2020/12/31 00:45:28;;;;;;;11.38;5.72;;;;;;;6.44;81.28;96874.23;1696238;84;21191;-69
2020/12/31 00:47:57;;;;;;;11.20;6.47;;;;;;;6.44;80.41;96879.86;1696318;84;21218;-69
2020/12/31 00:50:25;;;;;;;12.05;5.70;;;;;;;6.43;80.87;96888.08;1696477;84;21163;-69
2020/12/31 00:52:53;;;;;;;11.83;5.53;;;;;;;6.40;80.78;96890.95;1696323;84;21166;-69
2020/12/31 00:55:21;;;;;;;14.00;6.50;;;;;;;6.33;81.52;96888.61;1696490;84;21187;-69
2020/12/31 00:57:50;;;;;;;10.88;5.72;;;;;;;6.22;82.75;96893.13;1698855;84;21222;-71
2020/12/31 01:00:18;;;;;;;8.15;4.72;;;;;;;6.20;82.07;96883.77;1704196;84;21139;-70
2020/12/31 01:02:48;;;;;;;12.45;4.92;;;;;;;6.18;81.96;96879.25;1696953;84;21277;-70
2020/12/31 01:05:16;;;;;;;10.15;6.03;;;;;;;6.15;81.65;96878.69;1704170;84;21198;-66
2020/12/31 01:07:44;;;;;;;11.50;5.47;;;;;;;6.10;82.96;96883.00;1704290;84;21166;-66
2020/12/31 01:10:12;;;;;;;7.67;4.45;;;;;;;6.09;82.50;96879.27;1682380;84;21167;-65
2020/12/31 01:12:40;;;;;;;12.13;5.00;;;;;;;6.03;82.91;96880.63;1704315;84;21170;-65
2020/12/31 01:15:08;;;;;;;9.85;4.92;;;;;;;6.00;82.27;96875.77;1704380;84;21222;-70
2020/12/31 01:17:36;;;;;;;8.00;4.72;;;;;;;5.96;82.39;96889.88;1704232;84;21199;-69
2020/12/31 01:20:05;;;;;;;11.10;5.08;;;;;;;5.93;82.83;96882.91;1704224;84;21166;-69
2020/12/31 01:22:33;;;;;;;10.40;4.80;;;;;;;5.90;82.73;96880.15;1704273;84;21199;-69
2020/12/31 01:25:02;;;;;;;14.45;5.65;;;;;;;5.87;82.78;96884.30;1704484;84;21234;-69
2020/12/31 01:27:30;;;;;;;10.43;5.35;;;;;;;5.86;83.18;96886.97;1704462;84;21159;-68
2020/12/31 01:29:58;;;;;;;13.70;6.60;;;;;;;5.82;83.97;96886.91;1704374;84;21591;-68
2020/12/31 01:32:27;;;;;;;13.93;6.75;;;;;;;5.81;83.38;96891.72;1704264;84;21212;-69
2020/12/31 01:34:55;;;;;;;14.38;6.67;;;;;;;5.78;83.35;96885.56;1704241;84;21171;-70
2020/12/31 01:37:23;;;;;;;7.22;4.25;;;;;;;5.77;82.86;96891.66;1704355;84;21163;-70
2020/12/31 01:39:51;;;;;;;13.65;5.28;;;;;;;5.71;83.31;96888.70;1704311;84;21225;-70
2020/12/31 01:42:19;;;;;;;12.10;5.17;;;;;;;5.67;85.00;96891.70;1704359;84;21179;-69
2020/12/31 01:44:48;;;;;;;9.08;4.95;;;;;;;5.65;83.71;96885.38;1704565;84;21144;-68
2020/12/31 01:47:18;;;;;;;11.48;5.58;;;;;;;5.62;83.85;96883.56;1704278;84;21179;-69
2020/12/31 01:49:48;;;;;;;14.83;6.78;;;;;;;5.59;83.63;96881.27;1704484;84;21212;-68
2020/12/31 01:52:18;;;;;;;13.22;5.90;;;;;;;5.55;84.03;96885.06;1704519;84;21175;-64
2020/12/31 01:54:47;;;;;;;10.58;5.45;;;;;;;5.53;84.17;96894.67;1704381;84;21243;-65
2020/12/31 01:57:16;;;;;;;9.60;5.10;;;;;;;5.48;85.04;96893.01;1704483;84;21175;-64
2020/12/31 01:59:45;;;;;;;8.28;5.30;;;;;;;5.47;84.99;96886.23;1696518;84;21587;-70
2020/12/31 02:02:13;;;;;;;6.60;4.58;;;;;;;5.45;85.17;96885.53;1696694;84;21483;-65
2020/12/31 02:04:42;;;;;;;6.35;3.15;;;;;;;5.44;84.70;96886.03;1696378;84;21179;-65
2020/12/31 02:07:10;;;;;;;6.22;3.05;;;;;;;5.46;83.91;96885.88;1696336;84;21175;-65
2020/12/31 02:09:38;;;;;;;6.78;3.65;;;;;;;5.45;83.90;96890.21;1696550;84;21159;-65
2020/12/31 02:12:06;;;;;;;7.78;4.37;;;;;;;5.45;84.22;96888.11;1696763;84;21176;-65
2020/12/31 02:14:34;;;;;;;6.47;3.83;;;;;;;5.46;84.46;96883.30;1696459;84;21167;-67
2020/12/31 02:17:02;;;;;;;6.92;4.17;;;;;;;5.47;84.10;96883.18;1696502;84;21163;-67
2020/12/31 02:19:30;;;;;;;4.70;3.35;;;;;;;5.49;84.36;96872.73;1696432;84;21659;-68
2020/12/31 02:21:59;;;;;;;6.67;3.37;;;;;;;5.51;84.39;96882.42;1696632;84;21184;-67
2020/12/31 02:24:27;;;;;;;4.75;3.95;;;;;;;5.51;84.70;96880.67;1696477;84;21164;-67
2020/12/31 02:26:55;;;;;;;5.85;3.72;;;;;;;5.49;83.83;96886.41;1696825;84;21165;-69
2020/12/31 02:29:23;;;;;;;9.43;2.77;;;;;;;5.46;84.66;96882.83;1696482;84;21175;-70
2020/12/31 02:31:51;;;;;;;4.33;2.33;;;;;;;5.48;84.04;96884.00;1696357;84;21588;-70
2020/12/31 02:34:19;;;;;;;6.75;3.12;;;;;;;5.48;84.27;96880.95;1696681;84;21164;-67
2020/12/31 02:36:47;;;;;;;6.72;3.05;;;;;;;5.50;84.22;96883.37;1696746;84;21144;-67
2020/12/31 02:39:16;;;;;;;8.58;2.50;;;;;;;5.52;84.41;96884.06;1696577;84;21200;-68
2020/12/31 02:41:44;;;;;;;6.10;3.35;;;;;;;5.55;84.12;96866.57;1696491;84;21178;-67
2020/12/31 02:44:12;;;;;;;9.10;3.25;;;;;;;5.58;83.85;96862.42;1696661;84;21151;-68
2020/12/31 02:46:40;;;;;;;5.35;3.47;;;;;;;5.62;83.88;96859.91;1696485;84;21180;-67
2020/12/31 02:49:09;;;;;;;6.33;2.90;;;;;;;5.58;83.79;96869.33;1696728;84;21168;-64
2020/12/31 02:51:36;;;;;;;5.37;3.95;;;;;;;5.55;84.08;96867.04;1696633;84;21171;-67
2020/12/31 02:54:05;;;;;;;8.98;4.58;;;;;;;5.50;84.15;96868.73;1696414;84;21132;-69
2020/12/31 02:56:33;;;;;;;5.75;3.92;;;;;;;5.47;84.60;96872.06;1696213;84;21234;-69
2020/12/31 02:59:01;;;;;;;5.28;3.02;;;;;;;5.45;84.62;96868.80;1696474;84;21222;-67
2020/12/31 03:01:29;;;;;;;4.70;2.75;;;;;;;5.49;84.14;96872.25;1696282;84;21624;-68
2020/12/31 03:03:57;;;;;;;7.17;3.08;;;;;;;5.54;83.96;96870.09;1696238;84;21150;-67
2020/12/31 03:06:25;;;;;;;7.47;3.52;;;;;;;5.59;83.84;96867.92;1696369;84;21247;-66
2020/12/31 03:08:53;;;;;;;3.08;2.27;;;;;;;5.60;83.62;96868.23;1696338;84;21242;-66
2020/12/31 03:11:24;;;;;;;7.10;4.03;;;;;;;5.63;83.50;96865.88;1696493;84;21168;-66
2020/12/31 03:13:53;;;;;;;3.95;2.70;;;;;;;5.63;83.29;96868.45;1696578;84;21278;-66
2020/12/31 03:16:22;;;;;;;6.17;2.80;;;;;;;5.64;83.94;96861.86;1696510;84;21162;-66
2020/12/31 03:18:50;;;;;;;5.37;3.15;;;;;;;5.67;83.62;96856.45;1696493;84;21163;-67
2020/12/31 03:21:18;;;;;;;4.83;2.85;;;;;;;5.76;83.36;96859.14;1696486;84;21196;-66
2020/12/31 03:23:46;;;;;;;4.42;3.08;;;;;;;5.80;83.23;96859.98;1696363;84;21631;-66
2020/12/31 03:26:14;;;;;;;6.67;4.10;;;;;;;5.81;83.33;96855.18;1696515;84;21163;-67
2020/12/31 03:28:42;;;;;;;5.72;3.52;;;;;;;5.82;83.27;96850.84;1696497;84;21576;-69
2020/12/31 03:31:11;;;;;;;4.87;3.15;;;;;;;5.78;83.47;96847.73;1696687;84;21230;-69
2020/12/31 03:33:38;;;;;;;5.35;2.90;;;;;;;5.77;83.40;96840.14;1696275;84;21140;-69
2020/12/31 03:36:06;;;;;;;6.80;3.22;;;;;;;5.75;83.17;96840.30;1696233;84;21167;-70
2020/12/31 03:38:34;;;;;;;7.62;4.62;;;;;;;5.76;83.04;96837.25;1696354;84;21170;-68
2020/12/31 03:41:02;;;;;;;6.83;2.98;;;;;;;5.74;83.20;96833.52;1696442;84;21222;-64
2020/12/31 03:43:30;;;;;;;7.30;3.45;;;;;;;5.72;82.85;96833.64;1696558;84;21216;-67
2020/12/31 03:45:58;;;;;;;10.30;3.65;;;;;;;5.71;82.96;96827.36;1696323;84;21136;-65
2020/12/31 03:48:26;;;;;;;5.87;3.72;;;;;;;5.70;82.96;96824.44;1696426;84;21576;-64
2020/12/31 03:50:54;;;;;;;5.25;3.37;;;;;;;5.66;83.23;96830.34;1696742;84;21643;-64
2020/12/31 03:53:22;;;;;;;6.05;3.62;;;;;;;5.63;83.11;96822.91;1696590;84;21214;-67
2020/12/31 03:55:50;;;;;;;8.00;4.03;;;;;;;5.60;83.55;96825.73;1696560;84;21160;-67
2020/12/31 03:58:18;;;;;;;10.58;4.08;;;;;;;5.59;83.07;96822.03;1695073;84;21266;-67
2020/12/31 04:00:46;;;;;;;9.18;3.87;;;;;;;5.60;83.00;96817.23;1688882;85;21783;-67
2020/12/31 04:03:14;;;;;;;13.62;4.12;;;;;;;5.59;82.85;96809.97;1688617;85;21298;-67
2020/12/31 04:05:43;;;;;;;9.60;4.35;;;;;;;5.61;82.69;96809.81;1688862;85;21298;-68
2020/12/31 04:08:11;;;;;;;7.67;3.30;;;;;;;5.60;82.63;96805.14;1689079;85;21318;-67
2020/12/31 04:10:39;;;;;;;6.95;4.00;;;;;;;5.57;83.01;96802.03;1689178;85;21401;-68
2020/12/31 04:13:07;;;;;;;8.00;4.03;;;;;;;5.54;83.25;96816.01;1688921;85;21573;-65
2020/12/31 04:15:35;;;;;;;8.33;3.58;;;;;;;5.52;83.27;96814.06;1688763;85;21636;-64
2020/12/31 04:18:04;;;;;;;4.90;2.95;;;;;;;5.49;84.21;96810.93;1688917;85;21314;-64
2020/12/31 04:20:34;;;;;;;6.80;3.70;;;;;;;5.46;84.55;96817.65;1688870;85;21367;-65
2020/12/31 04:23:02;;;;;;;4.67;3.20;;;;;;;5.44;84.67;96816.99;1688446;85;21172;-64
2020/12/31 04:25:30;;;;;;;5.83;3.02;;;;;;;5.44;84.34;96815.23;1688854;85;21164;-66
2020/12/31 04:27:58;;;;;;;7.17;3.17;;;;;;;5.41;84.04;96819.34;1688690;85;21226;-65
2020/12/31 04:30:26;;;;;;;6.40;3.30;;;;;;;5.39;84.56;96812.25;1688625;85;21187;-64
2020/12/31 04:32:54;;;;;;;9.43;2.90;;;;;;;5.39;84.64;96813.53;1688461;85;21152;-64
2020/12/31 04:35:22;;;;;;;8.83;3.22;;;;;;;5.42;84.28;96817.59;1688794;85;21310;-65
2020/12/31 04:37:50;;;;;;;4.70;2.75;;;;;;;5.42;84.58;96813.25;1688717;85;21361;-65
2020/12/31 04:40:18;;;;;;;4.15;2.65;;;;;;;5.44;84.33;96816.99;1688659;85;21302;-65
2020/12/31 04:42:51;;;;;;;7.83;3.08;;;;;;;5.46;84.83;96817.65;1688997;85;21188;-65
2020/12/31 04:45:20;;;;;;;6.47;3.20;;;;;;;5.48;84.84;96810.61;1688680;85;21691;-65
2020/12/31 04:48:35;;;;;;;5.70;3.02;;;;;;;5.49;84.46;96808.35;1688844;85;21302;-64
2020/12/31 04:51:08;;;;;;;6.70;3.12;;;;;;;5.51;84.12;96815.01;1689009;85;21159;-64
2020/12/31 04:53:37;;;;;;;8.03;3.87;;;;;;;5.55;83.96;96807.81;1688803;84;21582;-64
2020/12/31 04:56:06;;;;;;;7.42;4.03;;;;;;;5.58;83.74;96813.97;1688704;85;21691;-65
2020/12/31 04:58:36;;;;;;;6.47;4.58;;;;;;;5.59;84.23;96802.72;1688880;84;21239;-65
2020/12/31 05:01:04;;;;;;;9.48;3.50;;;;;;;5.57;85.80;96800.74;1689423;85;21195;-64
2020/12/31 05:03:32;;;;;;;12.53;4.97;;;;;;;5.56;86.11;96798.64;1689329;85;21163;-64
2020/12/31 05:06:04;;;;;;;6.55;3.35;;;;;;;5.55;86.00;96793.17;1689332;85;21189;-66
2020/12/31 05:08:33;;;;;;;4.90;2.67;;;;;;;5.50;87.32;96788.09;1689207;85;21192;-65
2020/12/31 05:11:01;;;;;;;6.72;3.60;;;;;;;5.51;87.15;96793.13;1689300;85;21141;-65
2020/12/31 05:13:29;;;;;;;4.10;2.98;;;;;;;5.53;87.74;96792.96;1689522;85;21247;-65
2020/12/31 05:15:57;;;;;;;6.47;3.52;;;;;;;5.57;87.06;96799.45;1689180;85;21172;-64
2020/12/31 05:18:32;;;;;;;6.50;3.22;;;;;;;5.61;86.33;96800.80;1689246;85;21582;-64
2020/12/31 05:21:02;;;;;;;4.28;2.90;;;;;;;5.65;85.96;96802.15;1689250;85;21176;-66
2020/12/31 05:23:32;;;;;;;4.92;2.80;;;;;;;5.70;85.99;96807.23;1689360;85;21140;-66
2020/12/31 05:26:00;;;;;;;4.45;2.70;;;;;;;5.75;85.73;96808.09;1689286;85;21162;-66
2020/12/31 05:28:34;;;;;;;6.12;3.22;;;;;;;5.82;85.58;96805.29;1689535;85;21178;-65
2020/12/31 05:31:10;;;;;;;6.10;3.67;;;;;;;5.90;85.39;96801.56;1694776;83;21153;-65
2020/12/31 05:33:41;;;;;;;6.67;3.47;;;;;;;5.96;85.06;96799.69;1656310;85;21198;-64
2020/12/31 05:36:26;;;;;;;9.05;4.75;;;;;;;5.98;84.77;96791.83;1628511;88;21247;-66
2020/12/31 05:39:04;;;;;;;6.60;4.17;;;;;;;5.99;84.66;96801.98;1628649;88;21179;-70
2020/12/31 05:41:37;;;;;;;5.42;3.87;;;;;;;5.97;84.61;96792.78;1628592;88;21247;-69
2020/12/31 05:44:09;;;;;;;8.35;4.05;;;;;;;5.97;84.42;96791.02;1628299;88;21203;-68
2020/12/31 05:46:39;;;;;;;6.60;4.37;;;;;;;5.96;84.38;96791.14;1628607;88;21187;-68
2020/12/31 05:49:09;;;;;;;8.03;4.17;;;;;;;5.84;85.44;96795.64;1628547;88;21190;-68
2020/12/31 05:51:42;;;;;;;7.20;3.90;;;;;;;5.78;85.96;96798.80;1628262;88;21186;-68
2020/12/31 05:54:13;;;;;;;6.08;4.20;;;;;;;5.82;85.33;96797.56;1628678;88;21242;-66
2020/12/31 05:56:43;;;;;;;6.75;3.62;;;;;;;5.82;85.15;96795.45;1628339;88;21215;-65
2020/12/31 05:59:22;;;;;;;6.55;3.87;;;;;;;5.87;84.94;96803.14;1630279;87;21207;-64
2020/12/31 06:02:03;;;;;;;6.00;3.92;;;;;;;5.79;85.63;96800.90;1638278;87;21159;-64
2020/12/31 06:04:47;;;;;;;5.75;3.95;;;;;;;5.68;86.18;96800.09;1664986;86;22616;-65
2020/12/31 06:07:34;;;;;;;5.55;3.62;;;;;;;5.76;85.51;96800.69;1637336;87;21583;-63
2020/12/31 06:10:05;;;;;;;6.70;4.07;;;;;;;5.84;85.25;96801.27;1656617;87;21611;-64
2020/12/31 06:12:49;;;;;;;7.25;4.53;;;;;;;5.80;85.75;96797.38;1623917;88;21539;-65
2020/12/31 06:15:21;;;;;;;7.45;3.98;;;;;;;5.79;86.24;96802.19;1624121;88;21264;-63
2020/12/31 06:17:50;;;;;;;6.72;4.05;;;;;;;5.78;86.35;96805.23;1624018;88;21552;-63
2020/12/31 06:20:22;;;;;;;6.62;3.62;;;;;;;5.84;85.69;96808.52;1624015;88;21239;-65
2020/12/31 06:23:03;;;;;;;6.25;3.27;;;;;;;5.87;85.27;96803.14;1623969;88;21731;-64
2020/12/31 06:25:49;;;;;;;7.17;4.22;;;;;;;5.95;85.14;96801.92;1624223;88;21247;-70
2020/12/31 06:28:22;;;;;;;8.85;4.70;;;;;;;6.00;84.77;96796.34;1622285;88;21230;-73
2020/12/31 06:30:53;;;;;;;9.10;6.08;;;;;;;6.03;84.87;96799.95;1623892;88;21195;-70
2020/12/31 06:33:34;;;;;;;15.25;6.72;;;;;;;6.08;84.75;96794.69;1624467;88;21196;-71
2020/12/31 06:36:03;;;;;;;8.80;5.05;;;;;;;6.07;84.65;96796.14;1624146;88;21195;-70
2020/12/31 06:38:42;;;;;;;8.58;5.22;;;;;;;6.07;84.50;96799.50;1624000;88;21203;-72
2020/12/31 06:41:41;;;;;;;9.03;5.67;;;;;;;6.10;84.48;96788.93;1623902;88;21164;-73
2020/12/31 06:44:08;;;;;;;9.48;5.60;;;;;;;6.15;84.41;96784.61;1623803;87;21159;-72
2020/12/31 06:46:45;;;;;;;8.83;5.35;;;;;;;6.11;84.56;96793.11;1624029;88;21611;-73
2020/12/31 06:49:14;;;;;;;8.43;5.85;;;;;;;6.08;84.41;96790.82;1624017;88;21266;-72
2020/12/31 06:51:43;;;;;;;14.65;7.50;;;;;;;5.92;84.61;96771.30;1624063;88;21191;-71
2020/12/31 06:54:11;;;;;;;13.80;7.00;;;;;;;6.02;84.82;96785.44;1623964;88;21219;-67
2020/12/31 06:56:48;;;;;;;10.80;7.10;;;;;;;5.98;85.06;96789.25;1624111;88;21247;-69
2020/12/31 06:59:53;;;;;;;19.40;6.67;;;;;;;5.87;86.01;96786.87;1623816;87;21313;-65
2020/12/31 07:02:22;;;;;;;12.68;6.12;;;;;;;5.73;87.44;96786.80;1651209;87;21255;-64
2020/12/31 07:04:50;;;;;;;9.68;6.58;;;;;;;5.68;87.80;96776.13;1651618;87;21192;-64
2020/12/31 07:07:27;;;;;;;11.65;6.35;;;;;;;5.77;86.90;96774.45;1659655;86;21171;-64
2020/12/31 07:10:01;;;;;;;15.65;7.50;;;;;;;5.80;86.49;96783.20;1659471;86;21132;-64
2020/12/31 07:12:56;;;;;;;8.98;5.85;;;;;;;5.73;87.75;96792.77;1659502;86;21151;-64
2020/12/31 07:15:29;;;;;;;13.72;7.25;;;;;;;5.82;86.86;96785.15;1687506;84;21155;-68
2020/12/31 07:18:00;;;;;;;12.55;6.92;;;;;;;5.85;86.26;96776.66;1686548;84;21612;-69
2020/12/31 07:20:29;;;;;;;12.37;6.50;;;;;;;5.91;85.74;96774.84;1671885;85;21154;-67
2020/12/31 07:22:58;;;;;;;17.52;8.48;;;;;;;5.96;85.35;96770.06;1687541;85;21154;-70
2020/12/31 07:25:25;;;;;;;12.05;7.35;;;;;;;5.98;85.19;96765.59;1672059;85;21194;-68
2020/12/31 07:27:53;;;;;;;9.33;6.40;;;;;;;6.01;85.23;96758.03;1687788;85;21167;-68
2020/12/31 07:30:22;;;;;;;8.25;5.90;;;;;;;6.02;85.11;96765.64;1687628;85;21599;-68
2020/12/31 07:33:04;;;;;;;10.08;5.10;;;;;;;6.02;85.24;96757.91;1687801;85;21167;-65
2020/12/31 07:35:40;;;;;;;8.83;5.50;;;;;;;6.08;84.86;96757.79;1687365;85;21143;-66
2020/12/31 07:38:11;;;;;;;;;;;;;;;6.12;84.68;96752.21;1689883;84;21197;-63
2020/12/31 07:40:43;;;;;;;9.13;5.37;;;;;;;6.18;84.76;96745.20;1687544;84;20168;-64
2020/12/31 07:43:17;;;;;;;11.73;4.78;;;;;;;6.25;84.68;96749.30;1685370;84;21722;-65
2020/12/31 07:45:51;;;;;;;9.68;6.55;;;;;;;6.31;84.62;96749.98;1676749;85;21148;-66
2020/12/31 07:48:21;;;;;;;10.03;6.55;;;;;;;6.36;84.77;96747.80;1677019;85;21160;-66
2020/12/31 07:51:14;;;;;;;11.22;6.47;;;;;;;6.37;84.50;96745.55;1676740;85;21144;-66
2020/12/31 07:53:42;;;;;;;8.13;6.03;;;;;;;6.36;84.84;96747.80;1666647;84;21167;-70
2020/12/31 07:56:12;;;;;;;14.13;7.10;;;;;;;6.41;84.96;96748.65;1666280;84;21157;-71
2020/12/31 07:58:42;;;;;;;7.97;6.22;;;;;;;6.44;84.50;96745.30;1660095;85;21145;-70
2020/12/31 08:01:13;;;;;;;13.88;7.15;;;;;;;6.54;84.33;96747.31;1639926;86;21655;-70
2020/12/31 08:03:40;;;;;;;14.33;6.78;;;;;;;6.65;84.06;96739.35;1642965;86;21225;-70
2020/12/31 08:06:08;;;;;;;10.80;5.97;;;;;;;6.76;83.72;96746.55;1643163;86;21160;-67
2020/12/31 08:08:36;;;;;;;14.47;5.95;;;;;;;6.83;83.23;96752.73;1653239;86;21162;-65
2020/12/31 08:11:12;;;;;;;9.73;5.05;;;;;;;6.90;83.03;96747.30;1640909;86;21131;-70
2020/12/31 08:13:40;;;;;;;9.28;4.08;;;;;;;6.98;82.66;96744.78;1667004;84;21177;-68
2020/12/31 08:16:15;;;;;;;6.33;4.12;;;;;;;7.03;82.96;96740.00;1612038;87;21196;-69
2020/12/31 08:18:43;;;;;;;7.45;5.05;;;;;;;6.96;83.01;96744.95;1676966;83;21568;-69
2020/12/31 08:21:13;;;;;;;5.45;4.15;;;;;;;7.06;82.92;96752.12;1675459;84;21577;-69
2020/12/31 08:23:45;;;;;;;6.58;4.12;;;;;;;7.19;82.49;96737.53;1679289;84;21197;-69
2020/12/31 08:26:15;;;;;;;8.95;5.33;;;;;;;7.34;82.02;96725.69;1694790;84;21174;-67
2020/12/31 08:28:48;;;;;;;9.50;4.85;;;;;;;7.41;81.36;96727.16;1680318;84;21212;-68
2020/12/31 08:31:17;;;;;;;9.18;4.72;;;;;;;7.61;81.39;96717.76;1667770;85;21666;-68
2020/12/31 08:33:45;;;;;;;29.95;16.23;;;;;;;7.77;79.59;96719.60;1667475;84;21623;-69
2020/12/31 08:36:23;;;;;;;17.75;10.98;;;;;;;8.00;80.31;96723.72;1642158;87;21238;-70
2020/12/31 08:41:31;;;;;;;13.65;9.28;;;;;;;8.31;78.62;96702.02;1764957;79;23125;-66
2020/12/31 08:44:03;;;;;;;12.40;8.38;;;;;;;8.32;77.72;96704.45;1746045;82;21192;-70
2020/12/31 08:46:31;;;;;;;8.68;6.35;;;;;;;8.33;77.95;96702.64;1724294;82;21516;-67
2020/12/31 08:48:59;;;;;;;9.68;5.47;;;;;;;8.53;76.83;96700.09;1731536;82;21628;-68
2020/12/31 08:51:29;;;;;;;9.68;5.70;;;;;;;8.71;76.23;96689.12;1722576;82;22111;-67
2020/12/31 08:54:02;;;;;;;13.72;6.15;;;;;;;8.86;75.62;96691.38;1731534;81;21593;-68
2020/12/31 08:56:32;;;;;;;9.55;5.80;;;;;;;8.99;75.05;96693.45;1713149;82;21191;-67
2020/12/31 09:01:58;;;;;;;9.13;5.92;;;;;;;9.17;74.63;96697.17;1674376;84;21642;-67
2020/12/31 09:04:25;;;;;;;8.75;5.78;;;;;;;9.34;72.99;96700.03;1669149;83;21582;-67
2020/12/31 09:06:57;;;;;;;9.98;5.83;;;;;;;9.39;72.92;96691.28;1684322;83;21175;-70
2020/12/31 09:09:28;;;;;;;8.13;4.42;;;;;;;9.34;73.29;96694.85;1685180;83;21147;-70
2020/12/31 09:14:57;;;;;;;9.38;5.10;;;;;;;9.75;72.19;96685.18;1842652;77;23062;-71
2020/12/31 09:17:26;;;;;;;10.55;5.62;;;;;;;9.90;72.23;96682.19;1786046;79;21608;-69
2020/12/31 09:19:57;;;;;;;17.30;6.15;;;;;;;9.98;71.54;96676.97;1789691;79;21138;-69
2020/12/31 09:22:25;;;;;;;10.95;6.70;;;;;;;9.81;71.38;96678.02;1787948;79;21699;-68
2020/12/31 09:24:54;;;;;;;10.55;6.50;;;;;;;9.46;72.71;96675.39;1784711;79;21198;-64
2020/12/31 09:27:24;;;;;;;13.15;7.05;;;;;;;9.48;72.76;96669.09;1784432;79;21583;-66
2020/12/31 09:30:03;;;;;;;10.58;6.75;;;;;;;9.33;73.97;96667.35;1771089;79;21575;-65
2020/12/31 09:32:31;;;;;;;11.97;7.17;;;;;;;9.28;74.34;96656.67;1809685;78;21145;-66
2020/12/31 09:35:06;;;;;;;12.55;6.28;;;;;;;9.52;73.79;96655.30;1784604;79;21202;-66
2020/12/31 09:37:57;;;;;;;10.82;5.95;;;;;;;9.61;73.46;96651.69;1806458;78;21185;-66
2020/12/31 09:40:25;;;;;;;12.75;7.83;;;;;;;9.66;72.93;96652.00;1725610;81;21181;-66
2020/12/31 09:42:55;;;;;;;9.28;6.33;;;;;;;9.65;73.34;96652.97;1756212;80;21177;-66
2020/12/31 09:45:23;;;;;;;8.93;6.08;;;;;;;9.70;72.94;96646.80;1738696;81;21201;-67
2020/12/31 09:47:51;;;;;;;11.68;6.80;;;;;;;9.78;72.60;96643.36;1719683;82;21170;-66
2020/12/31 09:50:19;;;;;;;11.93;5.80;;;;;;;9.93;72.91;96644.25;1722707;82;21129;-64
2020/12/31 09:52:47;;;;;;;10.50;6.60;;;;;;;10.14;72.58;96638.46;1737473;81;21598;-65
2020/12/31 09:55:17;;;;;;;35.35;17.12;;;;;;;10.31;71.69;96636.12;1732565;81;21162;-67
2020/12/31 09:57:46;;;;;;;23.35;12.33;;;;;;;10.62;71.18;96630.33;1749432;81;21155;-65
2020/12/31 10:00:14;;;;;;;13.55;6.78;;;;;;;10.86;69.46;96626.72;1757666;80;21200;-65
2020/12/31 10:02:42;;;;;;;13.30;5.83;;;;;;;11.30;67.50;96618.48;1749723;80;21732;-65
2020/12/31 10:05:10;;;;;;;7.45;4.78;;;;;;;11.65;66.26;96618.72;1750594;80;21619;-65
2020/12/31 10:07:38;;;;;;;6.50;4.33;;;;;;;11.84;65.41;96612.48;1750876;80;21169;-65
2020/12/31 10:10:06;;;;;;;4.92;3.20;;;;;;;11.97;63.28;96614.43;1749826;80;21143;-66
2020/12/31 10:12:34;;;;;;;8.95;3.58;;;;;;;12.00;62.06;96611.94;1751810;81;21135;-67
2020/12/31 10:15:02;;;;;;;8.80;3.50;;;;;;;11.95;62.05;96607.28;1721147;82;21176;-66
2020/12/31 10:17:30;;;;;;;4.67;2.87;;;;;;;11.86;60.49;96607.92;1736669;82;21163;-71
2020/12/31 10:19:58;;;;;;;4.35;3.08;;;;;;;11.80;60.96;96609.93;1710146;83;21183;-70
2020/12/31 10:22:26;;;;;;;3.70;2.35;;;;;;;11.81;60.70;96610.73;1728531;82;21190;-70
2020/12/31 10:24:54;;;;;;;4.75;2.27;;;;;;;11.64;60.50;96611.90;1777763;80;21111;-70
2020/12/31 10:27:22;;;;;;;4.55;2.33;;;;;;;11.65;60.03;96613.03;1772560;80;21131;-68
2020/12/31 10:29:50;;;;;;;9.38;2.30;;;;;;;11.57;59.40;96609.22;1783299;80;21925;-68
2020/12/31 10:32:18;;;;;;;5.30;2.35;;;;;;;11.50;60.27;96615.33;1771441;78;21218;-63
2020/12/31 10:34:45;;;;;;;3.98;2.20;;;;;;;11.50;59.96;96616.14;1786377;79;21203;-66
2020/12/31 10:37:13;;;;;;;5.05;2.47;;;;;;;11.25;59.99;96609.59;1776695;79;21174;-66
2020/12/31 10:39:41;;;;;;;5.60;2.52;;;;;;;11.23;61.14;96605.90;1761196;80;21162;-65
2020/12/31 10:42:09;;;;;;;6.33;1.87;;;;;;;11.23;61.12;96598.59;1761138;80;21142;-64
2020/12/31 10:44:37;;;;;;;5.50;2.47;;;;;;;11.07;61.72;96611.27;1767137;80;21532;-64
2020/12/31 10:47:06;;;;;;;4.05;2.17;;;;;;;10.99;61.45;96602.74;1773678;79;21107;-70
2020/12/31 10:49:34;;;;;;;4.72;1.95;;;;;;;10.89;61.76;96602.50;1766198;80;21587;-66
2020/12/31 10:52:03;;;;;;;5.10;2.25;;;;;;;10.84;62.04;96602.25;1709098;82;21537;-66
2020/12/31 10:54:31;;;;;;;4.85;2.15;;;;;;;10.72;62.13;96604.95;1778524;80;21563;-69
2020/12/31 10:56:59;;;;;;;11.68;2.17;;;;;;;10.59;62.53;96602.14;1778025;80;21459;-67
2020/12/31 10:59:27;;;;;;;2.37;1.95;;;;;;;10.51;63.65;96603.98;1723365;82;21187;-66
2020/12/31 11:01:55;;;;;;;8.43;2.05;;;;;;;10.48;64.29;96598.18;1792408;80;21253;-65
2020/12/31 11:04:24;;;;;;;7.37;2.30;;;;;;;10.38;64.76;96597.62;1792372;80;21143;-65
2020/12/31 11:06:52;;;;;;;4.58;2.00;;;;;;;10.34;65.53;96586.47;1770708;80;21135;-65
2020/12/31 11:09:20;;;;;;;3.67;1.90;;;;;;;10.25;66.98;96593.50;1792406;80;21168;-65
2020/12/31 11:11:48;;;;;;;3.35;1.85;;;;;;;10.27;66.93;96590.74;1791455;80;21305;-65
2020/12/31 11:14:16;;;;;;;5.97;1.87;;;;;;;10.31;67.23;96596.68;1784003;79;21174;-64
2020/12/31 11:16:50;;;;;;;6.70;2.40;;;;;;;10.32;68.20;96587.92;1773596;79;21196;-64
2020/12/31 11:19:18;;;;;;;5.25;1.92;;;;;;;10.45;68.21;96591.23;1770228;79;21198;-65
2020/12/31 11:21:48;;;;;;;3.20;2.08;;;;;;;10.60;68.19;96582.98;1785100;79;21579;-65
2020/12/31 11:24:17;;;;;;;6.97;2.17;;;;;;;10.82;68.87;96581.31;1796379;79;21177;-65
2020/12/31 11:26:45;;;;;;;5.10;2.17;;;;;;;11.16;68.45;96567.33;1801821;79;21183;-66
2020/12/31 11:29:13;;;;;;;2.95;2.05;;;;;;;11.53;66.46;96555.17;1797796;79;21156;-65
2020/12/31 11:31:41;;;;;;;3.33;2.25;;;;;;;11.73;65.27;96551.03;1773786;79;21537;-70
2020/12/31 11:34:11;;;;;;;4.58;2.87;;;;;;;12.06;65.18;96533.16;1771327;79;21167;-70
2020/12/31 11:36:39;;;;;;;3.00;2.00;;;;;;;12.24;64.54;96529.61;1788195;79;21119;-64
2020/12/31 11:39:07;;;;;;;4.70;2.22;;;;;;;12.41;64.75;96537.97;1805133;79;21210;-67
2020/12/31 11:41:35;;;;;;;4.75;2.40;;;;;;;12.45;62.75;96537.38;1722665;83;21175;-64
2020/12/31 11:44:06;;;;;;;5.12;2.85;;;;;;;12.46;63.16;96536.88;1744494;82;21188;-66
2020/12/31 11:46:34;;;;;;;6.60;3.52;;;;;;;12.41;62.30;96537.47;1749042;82;21529;-67
2020/12/31 11:49:03;;;;;;;6.35;3.02;;;;;;;12.15;63.84;96538.53;1749418;82;21289;-65
2020/12/31 11:51:31;;;;;;;9.43;3.85;;;;;;;11.78;65.58;96539.59;1722914;82;21529;-66
2020/12/31 11:54:01;;;;;;;5.78;3.30;;;;;;;11.60;67.07;96536.55;1751886;81;21661;-65
2020/12/31 11:56:28;;;;;;;5.45;3.05;;;;;;;11.78;66.26;96537.80;1717383;82;21198;-66
2020/12/31 11:58:56;;;;;;;3.40;2.87;;;;;;;11.85;65.74;96540.46;1726015;81;21191;-65
2020/12/31 12:01:25;;;;;;;4.40;2.70;;;;;;;12.11;65.59;96538.10;1759344;80;21515;-65